Time;durP1;ratioP1;P1;durP2;ratioP2;P2;SDS_P1;SDS_P2;PMS_P1;PMS_P2;Temp;Humidity;BMP_temperature;BMP_pressure;BME280_temperature;BME280_humidity;BME280_pressure;Samples;Min_cycle;Max_cycle;Signal;HPM_P1;HPM_P2
2022/08/27 00:01:19;;;;;;;0.80;0.77;;;26.60;94.20;;;;;;5104075;28;20520;-68
2022/08/27 00:03:50;;;;;;;1.20;1.20;;;26.50;94.10;;;;;;5107105;28;20465;-69
2022/08/27 00:06:21;;;;;;;1.00;1.00;;;26.50;94.80;;;;;;5122377;28;20454;-71
2022/08/27 00:08:53;;;;;;;1.20;1.10;;;26.50;94.70;;;;;;5122734;28;20443;-69
2022/08/27 00:11:25;;;;;;;1.00;1.00;;;26.50;94.60;;;;;;5123720;28;20453;-66
2022/08/27 00:13:58;;;;;;;1.43;1.10;;;26.20;95.70;;;;;;5121428;28;20573;-67
2022/08/27 00:16:29;;;;;;;1.13;1.10;;;26.10;95.40;;;;;;5120292;28;20506;-67
2022/08/27 00:19:00;;;;;;;1.30;1.30;;;26.10;95.10;;;;;;5113918;28;20534;-67
2022/08/27 00:21:32;;;;;;;1.00;1.00;;;25.80;95.10;;;;;;5102944;28;20453;-66
2022/08/27 00:24:03;;;;;;;1.77;1.47;;;25.70;96.30;;;;;;5119146;28;20446;-66
2022/08/27 00:26:34;;;;;;;2.20;1.30;;;25.70;96.40;;;;;;5115568;28;20432;-67
2022/08/27 00:29:12;;;;;;;1.40;1.30;;;25.60;96.00;;;;;;5123030;28;20452;-67
2022/08/27 00:31:42;;;;;;;1.10;1.03;;;25.40;96.60;;;;;;5121523;28;20457;-68
2022/08/27 00:34:21;;;;;;;1.57;1.47;;;25.30;96.60;;;;;;5114879;28;20525;-66
2022/08/27 00:36:52;;;;;;;1.10;1.10;;;25.20;97.50;;;;;;5094017;28;20496;-67
2022/08/27 00:39:22;;;;;;;1.50;1.00;;;25.20;97.40;;;;;;5099374;28;20469;-66
2022/08/27 00:41:53;;;;;;;1.20;1.10;;;25.10;97.60;;;;;;5102754;28;20467;-66
2022/08/27 00:44:26;;;;;;;1.00;1.00;;;25.10;97.90;;;;;;5099331;28;20459;-66
2022/08/27 00:47:01;;;;;;;0.90;0.90;;;25.20;97.60;;;;;;5115851;28;20462;-67
2022/08/27 00:49:39;;;;;;;1.27;1.13;;;25.20;97.30;;;;;;5110596;28;20962;-67
2022/08/27 00:52:14;;;;;;;0.77;0.77;;;25.00;97.60;;;;;;5118752;28;20468;-68
2022/08/27 00:54:45;;;;;;;1.20;1.13;;;25.00;97.80;;;;;;5095281;28;20897;-69
2022/08/27 00:57:18;;;;;;;1.07;1.03;;;25.10;97.70;;;;;;5110001;28;20578;-70
2022/08/27 00:59:50;;;;;;;1.03;1.03;;;24.90;98.10;;;;;;5106375;28;20489;-70
2022/08/27 01:02:24;;;;;;;1.17;1.07;;;24.90;98.70;;;;;;5106659;28;20466;-69
2022/08/27 01:04:59;;;;;;;2.80;1.03;;;24.80;99.00;;;;;;5090419;28;20478;-69
2022/08/27 01:07:32;;;;;;;1.30;1.17;;;25.00;98.60;;;;;;5108287;28;20497;-69
2022/08/27 01:10:05;;;;;;;3.87;3.47;;;25.20;98.50;;;;;;5114810;28;20478;-69
2022/08/27 01:12:38;;;;;;;3.10;2.80;;;25.10;98.70;;;;;;5098777;28;20451;-69
2022/08/27 01:15:14;;;;;;;8.50;7.57;;;25.30;98.20;;;;;;5122704;28;20465;-70
2022/08/27 01:17:49;;;;;;;2.00;1.90;;;25.30;98.40;;;;;;5103972;28;20446;-68
2022/08/27 01:20:22;;;;;;;1.40;1.30;;;25.30;98.30;;;;;;5118930;28;20540;-67
2022/08/27 01:23:03;;;;;;;2.60;2.40;;;25.30;98.00;;;;;;5111612;28;20459;-68
2022/08/27 01:25:36;;;;;;;0.80;0.73;;;25.10;98.30;;;;;;5104083;28;20483;-67
2022/08/27 01:28:08;;;;;;;1.13;1.03;;;25.00;98.00;;;;;;5109009;28;20466;-68
2022/08/27 01:30:40;;;;;;;0.77;0.77;;;24.70;98.70;;;;;;5092233;28;20460;-69
2022/08/27 01:33:13;;;;;;;3.00;0.70;;;24.80;98.90;;;;;;5103520;28;20467;-70
2022/08/27 01:35:45;;;;;;;0.77;0.67;;;24.80;99.10;;;;;;5117802;28;20488;-70
2022/08/27 01:38:16;;;;;;;0.60;0.60;;;24.80;98.70;;;;;;5118300;28;20459;-70
2022/08/27 01:41:02;;;;;;;0.60;0.50;;;24.70;98.70;;;;;;5093999;28;21885;-67
2022/08/27 01:43:33;;;;;;;0.60;0.60;;;24.40;98.90;;;;;;5089676;28;20505;-69
2022/08/27 01:46:03;;;;;;;0.40;0.30;;;24.30;99.30;;;;;;5096619;28;20812;-69
2022/08/27 01:48:34;;;;;;;0.70;0.70;;;24.20;99.70;;;;;;5105676;28;20793;-68
2022/08/27 01:51:05;;;;;;;0.80;0.37;;;24.10;99.90;;;;;;5101027;28;20467;-68
2022/08/27 01:53:36;;;;;;;0.63;0.63;;;24.00;99.90;;;;;;5105622;28;20462;-66
2022/08/27 01:56:10;;;;;;;0.50;0.50;;;23.80;99.90;;;;;;5109505;28;20493;-68
2022/08/27 01:58:42;;;;;;;0.73;0.73;;;23.70;99.90;;;;;;5106052;28;20977;-67
2022/08/27 02:01:16;;;;;;;0.60;0.40;;;23.60;99.90;;;;;;5094931;28;20459;-66
2022/08/27 02:03:47;;;;;;;0.60;0.60;;;23.60;99.90;;;;;;5105687;28;20485;-66
2022/08/27 02:06:17;;;;;;;1.10;0.77;;;23.60;99.90;;;;;;5100851;28;20436;-66
2022/08/27 02:08:50;;;;;;;0.70;0.70;;;23.70;99.90;;;;;;5116155;28;20808;-66
2022/08/27 02:11:23;;;;;;;0.90;0.80;;;23.80;99.90;;;;;;5110805;28;20570;-66
2022/08/27 02:13:53;;;;;;;0.80;0.80;;;23.70;99.90;;;;;;5104924;28;20451;-65
2022/08/27 02:16:24;;;;;;;0.53;0.47;;;23.70;99.90;;;;;;5105170;28;20493;-66
2022/08/27 02:18:55;;;;;;;4.57;1.97;;;23.60;99.90;;;;;;5109855;28;20462;-66
2022/08/27 02:21:26;;;;;;;1.83;1.50;;;23.60;99.90;;;;;;5098342;28;20555;-66
2022/08/27 02:23:57;;;;;;;2.20;0.70;;;23.40;99.90;;;;;;5103012;28;20462;-65
2022/08/27 02:26:29;;;;;;;3.20;2.57;;;23.40;99.90;;;;;;5109736;28;20801;-65
2022/08/27 02:29:00;;;;;;;5.00;3.40;;;23.30;99.90;;;;;;5102859;28;20546;-66
2022/08/27 02:31:31;;;;;;;2.77;2.00;;;23.20;99.90;;;;;;5118137;28;20492;-66
2022/08/27 02:34:02;;;;;;;1.57;1.13;;;23.20;99.90;;;;;;5125773;28;20449;-66
2022/08/27 02:36:33;;;;;;;0.50;0.50;;;23.30;99.90;;;;;;5124843;28;20489;-66
2022/08/27 02:39:04;;;;;;;0.70;0.57;;;23.20;99.90;;;;;;5125803;28;20449;-66
2022/08/27 02:41:36;;;;;;;0.60;0.50;;;23.10;99.90;;;;;;5125410;28;20449;-66
2022/08/27 02:44:07;;;;;;;0.50;0.50;;;23.00;99.90;;;;;;5125524;28;20445;-67
2022/08/27 02:46:40;;;;;;;0.73;0.73;;;23.00;99.90;;;;;;5125404;28;20453;-64
2022/08/27 02:49:12;;;;;;;0.60;0.50;;;23.00;99.90;;;;;;5125023;28;20469;-65
2022/08/27 02:51:42;;;;;;;0.70;0.60;;;23.00;99.90;;;;;;5085942;28;20432;-64
2022/08/27 02:54:13;;;;;;;0.50;0.50;;;22.90;99.90;;;;;;5084938;28;20534;-66
2022/08/27 02:56:45;;;;;;;0.70;0.70;;;22.90;99.90;;;;;;5084261;28;20486;-66
2022/08/27 02:59:18;;;;;;;0.63;0.63;;;22.90;99.90;;;;;;5084062;28;20443;-66
2022/08/27 03:01:48;;;;;;;0.50;0.50;;;22.90;99.90;;;;;;5084148;28;20447;-64
2022/08/27 03:04:21;;;;;;;0.50;0.50;;;22.80;99.90;;;;;;5083743;28;20475;-63
2022/08/27 03:06:53;;;;;;;0.67;0.67;;;22.80;99.90;;;;;;5084071;28;20450;-66
2022/08/27 03:09:23;;;;;;;0.60;0.50;;;22.80;99.90;;;;;;5084400;28;20440;-66
2022/08/27 03:11:57;;;;;;;0.50;0.50;;;22.70;99.90;;;;;;5083907;28;20448;-66
2022/08/27 03:14:28;;;;;;;2.80;0.63;;;22.70;99.90;;;;;;5084031;28;20443;-64
2022/08/27 03:18:17;;;;;;;0.80;0.60;;;22.70;99.90;;;;;;5083889;28;20487;-65
2022/08/27 03:19:49;;;;;;;0.40;0.40;;;22.60;99.90;;;;;;5083637;28;20447;-64
2022/08/27 03:22:20;;;;;;;0.50;0.50;;;22.70;99.90;;;;;;5083336;28;20436;-65
2022/08/27 03:24:50;;;;;;;0.50;0.40;;;22.60;99.90;;;;;;5084382;28;20440;-64
2022/08/27 03:27:23;;;;;;;0.77;0.40;;;22.60;99.90;;;;;;5083713;28;21342;-64
2022/08/27 03:29:54;;;;;;;0.43;0.40;;;22.50;99.90;;;;;;5083508;28;20542;-64
2022/08/27 03:32:27;;;;;;;0.53;0.53;;;22.60;99.90;;;;;;5083462;28;20452;-65
2022/08/27 03:34:58;;;;;;;0.83;0.60;;;22.60;99.90;;;;;;5083787;28;20444;-64
2022/08/27 03:37:30;;;;;;;0.50;0.50;;;22.60;99.90;;;;;;5082778;28;20539;-65
2022/08/27 03:40:01;;;;;;;0.50;0.40;;;22.50;99.90;;;;;;5083618;28;20418;-65
2022/08/27 03:42:34;;;;;;;0.50;0.50;;;22.40;99.90;;;;;;5083142;28;20479;-64
2022/08/27 03:45:05;;;;;;;0.40;0.40;;;22.40;99.90;;;;;;5083446;28;20547;-64
2022/08/27 03:47:37;;;;;;;0.57;0.47;;;22.40;99.90;;;;;;5083389;28;20798;-64
2022/08/27 03:50:10;;;;;;;0.50;0.43;;;22.40;99.90;;;;;;5083094;28;20452;-64
2022/08/27 03:52:41;;;;;;;0.40;0.30;;;22.30;99.90;;;;;;5082555;28;20428;-64
2022/08/27 03:55:12;;;;;;;0.80;0.40;;;22.20;99.90;;;;;;5083827;28;20407;-65
2022/08/27 03:57:44;;;;;;;0.40;0.30;;;22.20;99.90;;;;;;5083229;28;21013;-64
2022/08/27 04:00:16;;;;;;;0.40;0.40;;;22.20;99.90;;;;;;5083104;28;20444;-65
2022/08/27 04:02:46;;;;;;;0.40;0.40;;;22.30;99.90;;;;;;5083029;28;20455;-65
2022/08/27 04:05:19;;;;;;;0.40;0.40;;;22.20;99.90;;;;;;5083556;28;20422;-64
2022/08/27 04:07:50;;;;;;;0.50;0.40;;;22.30;99.90;;;;;;5082730;28;20446;-65
2022/08/27 04:10:21;;;;;;;0.40;0.30;;;22.30;99.90;;;;;;5083295;28;20783;-64
2022/08/27 04:12:53;;;;;;;0.57;0.50;;;22.20;99.90;;;;;;5083100;28;20450;-64
2022/08/27 04:15:24;;;;;;;0.50;0.50;;;22.20;99.90;;;;;;5082162;28;20451;-64
2022/08/27 04:17:54;;;;;;;0.40;0.30;;;22.20;99.90;;;;;;5083043;28;20927;-65
2022/08/27 04:20:26;;;;;;;0.40;0.30;;;22.10;99.90;;;;;;5082979;28;20447;-65
2022/08/27 04:23:05;;;;;;;0.63;0.50;;;22.10;99.90;;;;;;5082528;28;20439;-65
2022/08/27 04:25:38;;;;;;;0.50;0.50;;;22.10;99.90;;;;;;5083364;28;20470;-64
2022/08/27 04:28:12;;;;;;;0.43;0.40;;;22.10;99.90;;;;;;5083161;28;20455;-64
2022/08/27 04:30:44;;;;;;;0.47;0.30;;;22.10;99.90;;;;;;5082645;28;20450;-65
2022/08/27 04:33:16;;;;;;;0.30;0.20;;;22.00;99.90;;;;;;5082981;28;20424;-64
2022/08/27 04:35:47;;;;;;;0.40;0.30;;;22.00;99.90;;;;;;5082441;28;20486;-65
2022/08/27 04:38:17;;;;;;;0.40;0.30;;;21.90;99.90;;;;;;5082851;28;20479;-65
2022/08/27 04:43:38;;;;;;;0.40;0.30;;;21.70;99.90;;;;;;5083037;28;20567;-65
2022/08/27 04:46:09;;;;;;;0.53;0.43;;;21.70;99.90;;;;;;5082833;28;20444;-65
2022/08/27 04:48:40;;;;;;;0.50;0.30;;;21.70;99.90;;;;;;5082944;28;20862;-65
2022/08/27 04:51:11;;;;;;;0.60;0.30;;;21.70;99.90;;;;;;5081950;28;20549;-65
2022/08/27 04:53:46;;;;;;;0.40;0.30;;;21.60;99.90;;;;;;5083040;28;20450;-65
2022/08/27 04:56:20;;;;;;;0.40;0.30;;;21.50;99.90;;;;;;5083167;28;20423;-65
2022/08/27 04:58:53;;;;;;;0.40;0.30;;;21.30;99.90;;;;;;5083163;28;20471;-65
2022/08/27 05:01:25;;;;;;;0.40;0.30;;;21.20;99.90;;;;;;5082335;28;20470;-65
2022/08/27 05:03:57;;;;;;;0.67;0.57;;;21.10;99.90;;;;;;5082806;28;20489;-65
2022/08/27 05:06:28;;;;;;;0.40;0.40;;;21.00;99.90;;;;;;5082125;28;20818;-65
2022/08/27 05:09:00;;;;;;;0.40;0.40;;;21.00;99.90;;;;;;5082787;28;20452;-65
2022/08/27 05:11:33;;;;;;;0.50;0.50;;;20.90;99.90;;;;;;5082541;28;20443;-65
2022/08/27 05:14:07;;;;;;;0.50;0.50;;;20.90;99.90;;;;;;5083003;28;20455;-65
2022/08/27 05:16:38;;;;;;;0.43;0.40;;;20.90;99.90;;;;;;5082630;28;20433;-65
2022/08/27 05:19:13;;;;;;;0.40;0.37;;;20.90;99.90;;;;;;5082573;28;20502;-65
2022/08/27 05:21:47;;;;;;;0.53;0.40;;;20.90;99.90;;;;;;5081586;28;20924;-65
2022/08/27 05:24:18;;;;;;;0.40;0.37;;;20.80;99.90;;;;;;5082373;28;20455;-65
2022/08/27 05:26:51;;;;;;;0.40;0.33;;;20.80;99.90;;;;;;5083524;28;20430;-65
2022/08/27 05:29:24;;;;;;;0.40;0.40;;;20.80;99.90;;;;;;5086531;28;20470;-65
2022/08/27 05:31:55;;;;;;;0.30;0.20;;;20.80;99.90;;;;;;5085593;28;20451;-65
2022/08/27 05:34:25;;;;;;;0.40;0.37;;;20.90;99.90;;;;;;5086069;28;20443;-65
2022/08/27 05:36:57;;;;;;;0.40;0.40;;;20.90;99.90;;;;;;5085393;28;20534;-65
2022/08/27 05:39:28;;;;;;;0.40;0.40;;;21.00;99.90;;;;;;5086023;28;20498;-65
2022/08/27 05:41:58;;;;;;;0.40;0.40;;;21.00;99.90;;;;;;5085149;28;20475;-65
2022/08/27 05:44:31;;;;;;;0.50;0.50;;;21.00;99.90;;;;;;5086286;28;20436;-65
2022/08/27 05:47:11;;;;;;;0.50;0.20;;;21.10;99.90;;;;;;5085682;28;20942;-65
2022/08/27 05:49:41;;;;;;;0.40;0.30;;;21.00;99.90;;;;;;5085733;28;20455;-65
2022/08/27 05:52:13;;;;;;;0.40;0.30;;;21.10;99.90;;;;;;5084686;28;20444;-65
2022/08/27 05:54:43;;;;;;;0.60;0.30;;;21.10;99.90;;;;;;5085831;28;20559;-65
2022/08/27 05:57:14;;;;;;;0.50;0.37;;;21.10;99.90;;;;;;5085589;28;20812;-64
2022/08/27 06:02:36;;;;;;;0.40;0.30;;;21.00;99.90;;;;;;5085317;28;20778;-65
2022/08/27 06:05:07;;;;;;;0.30;0.10;;;21.00;99.90;;;;;;5085730;28;20562;-65
2022/08/27 06:07:38;;;;;;;0.30;0.20;;;20.90;99.90;;;;;;5084835;28;20451;-65
2022/08/27 06:10:10;;;;;;;0.30;0.20;;;20.90;99.90;;;;;;5085501;28;20443;-65
2022/08/27 06:12:40;;;;;;;0.30;0.20;;;20.90;99.90;;;;;;5085100;28;20429;-65
2022/08/27 06:15:13;;;;;;;0.40;0.20;;;20.90;99.90;;;;;;5085778;28;20447;-65
2022/08/27 06:17:44;;;;;;;0.30;0.20;;;20.80;99.90;;;;;;5085029;28;20458;-65
2022/08/27 06:20:15;;;;;;;0.30;0.20;;;20.90;99.90;;;;;;5085372;28;20439;-65
2022/08/27 06:22:45;;;;;;;0.40;0.20;;;20.90;99.90;;;;;;5084154;28;20447;-65
2022/08/27 06:25:16;;;;;;;0.30;0.20;;;20.90;99.90;;;;;;5085241;28;20495;-65
2022/08/27 06:27:47;;;;;;;0.40;0.20;;;20.80;99.90;;;;;;5085011;28;20443;-65
2022/08/27 06:30:19;;;;;;;0.40;0.20;;;20.70;99.90;;;;;;5085507;28;20428;-65
2022/08/27 06:32:50;;;;;;;0.40;0.27;;;20.70;99.90;;;;;;5084435;28;20485;-65
2022/08/27 06:35:21;;;;;;;0.40;0.30;;;20.60;99.90;;;;;;5084986;28;20452;-65
2022/08/27 06:37:52;;;;;;;0.30;0.20;;;20.60;99.90;;;;;;5083292;28;20426;-65
2022/08/27 06:40:22;;;;;;;1.53;0.20;;;20.60;99.90;;;;;;5084995;28;20447;-65
2022/08/27 06:42:53;;;;;;;0.30;0.23;;;20.50;99.90;;;;;;5084140;28;20479;-65
2022/08/27 06:45:26;;;;;;;0.30;0.20;;;20.60;99.90;;;;;;5085105;28;20413;-64
2022/08/27 06:47:56;;;;;;;0.50;0.30;;;20.50;99.90;;;;;;5084424;28;20429;-65
2022/08/27 06:50:28;;;;;;;0.30;0.20;;;20.50;99.90;;;;;;5084681;28;20447;-65
2022/08/27 06:52:59;;;;;;;0.30;0.20;;;20.50;99.90;;;;;;5083548;28;20454;-65
2022/08/27 06:55:30;;;;;;;0.30;0.20;;;20.50;99.90;;;;;;5084512;28;20447;-65
2022/08/27 06:58:06;;;;;;;0.53;0.20;;;20.40;99.90;;;;;;5084490;28;20430;-65
2022/08/27 07:00:38;;;;;;;0.30;0.20;;;20.40;99.90;;;;;;5084934;28;20406;-65
2022/08/27 07:03:09;;;;;;;0.70;0.40;;;20.30;99.90;;;;;;5084087;28;20444;-64
2022/08/27 07:05:41;;;;;;;0.63;0.40;;;20.10;99.90;;;;;;5084360;28;20423;-64
2022/08/27 07:08:11;;;;;;;0.40;0.40;;;20.00;99.90;;;;;;5084367;28;20455;-64
2022/08/27 07:10:43;;;;;;;0.50;0.43;;;19.90;99.90;;;;;;5084230;28;20458;-64
2022/08/27 07:13:13;;;;;;;1.13;0.70;;;19.80;99.90;;;;;;5083757;28;20820;-65
2022/08/27 07:15:46;;;;;;;0.50;0.40;;;19.70;99.90;;;;;;5084613;28;20446;-65
2022/08/27 07:18:19;;;;;;;0.97;0.50;;;19.50;99.90;;;;;;5084069;28;20473;-64
2022/08/27 07:20:56;;;;;;;0.40;0.30;;;19.40;99.90;;;;;;5083620;28;20440;-64
2022/08/27 07:23:27;;;;;;;0.40;0.30;;;19.30;99.90;;;;;;5083563;28;20438;-64
2022/08/27 07:25:58;;;;;;;0.60;0.40;;;19.20;99.90;;;;;;5083885;28;20418;-65
2022/08/27 07:28:30;;;;;;;0.50;0.33;;;19.20;99.90;;;;;;5083868;28;20434;-64
2022/08/27 07:31:02;;;;;;;0.80;0.40;;;19.10;99.90;;;;;;5084166;28;20414;-64
2022/08/27 07:33:33;;;;;;;0.97;0.70;;;19.00;99.90;;;;;;5083521;28;20454;-65
2022/08/27 07:36:04;;;;;;;0.70;0.40;;;18.90;99.90;;;;;;5083164;28;20447;-65
2022/08/27 07:38:35;;;;;;;0.60;0.40;;;18.90;99.90;;;;;;5083689;28;20422;-64
2022/08/27 07:41:07;;;;;;;0.40;0.30;;;18.90;99.90;;;;;;5083636;28;21145;-65
2022/08/27 07:46:28;;;;;;;0.50;0.40;;;18.90;99.90;;;;;;5083930;28;20420;-65
2022/08/27 07:48:59;;;;;;;0.70;0.40;;;18.80;99.90;;;;;;5083779;28;20427;-64
2022/08/27 07:51:31;;;;;;;0.70;0.50;;;18.80;99.90;;;;;;5082979;28;20482;-65
2022/08/27 07:54:02;;;;;;;0.50;0.33;;;18.70;99.90;;;;;;5083131;28;20447;-65
2022/08/27 07:56:32;;;;;;;0.43;0.37;;;18.70;99.90;;;;;;5083402;28;20433;-65
2022/08/27 07:59:03;;;;;;;0.40;0.40;;;18.60;99.90;;;;;;5083371;28;20475;-65
2022/08/27 08:01:36;;;;;;;0.90;0.20;;;18.70;99.90;;;;;;5083645;28;20407;-65
2022/08/27 08:04:07;;;;;;;0.43;0.30;;;18.60;99.90;;;;;;5083154;28;20462;-65
2022/08/27 08:06:39;;;;;;;0.37;0.20;;;18.60;99.90;;;;;;5082764;28;20422;-65
2022/08/27 08:09:10;;;;;;;0.40;0.30;;;18.60;99.90;;;;;;5083398;28;20525;-65
2022/08/27 08:11:40;;;;;;;0.40;0.40;;;18.70;99.90;;;;;;5083215;28;20453;-65
2022/08/27 08:14:11;;;;;;;0.40;0.30;;;18.60;99.90;;;;;;5082837;28;20527;-65
2022/08/27 08:16:43;;;;;;;0.30;0.20;;;18.60;99.90;;;;;;5083604;28;20431;-65
2022/08/27 08:19:14;;;;;;;0.70;0.40;;;18.50;99.90;;;;;;5083154;28;20552;-64
2022/08/27 08:21:45;;;;;;;0.40;0.20;;;18.40;99.90;;;;;;5082551;28;20484;-65
2022/08/27 08:24:16;;;;;;;0.40;0.20;;;18.40;99.90;;;;;;5082952;28;20451;-64
2022/08/27 08:26:48;;;;;;;0.53;0.20;;;18.30;99.90;;;;;;5082974;28;20448;-65
2022/08/27 08:29:19;;;;;;;0.50;0.40;;;18.30;99.90;;;;;;5083181;28;20431;-64
2022/08/27 08:31:54;;;;;;;0.70;0.33;;;18.20;99.90;;;;;;5083267;28;20535;-64
2022/08/27 08:34:25;;;;;;;0.40;0.20;;;18.10;99.90;;;;;;5082702;28;20433;-64
2022/08/27 08:36:55;;;;;;;0.40;0.30;;;18.10;99.90;;;;;;5082475;28;20426;-64
2022/08/27 08:39:26;;;;;;;0.40;0.20;;;18.00;99.90;;;;;;5083031;28;20493;-64
2022/08/27 08:41:59;;;;;;;0.40;0.23;;;18.00;99.90;;;;;;5082658;28;20422;-65
2022/08/27 08:44:34;;;;;;;0.40;0.30;;;18.10;99.90;;;;;;5082587;28;20455;-65
2022/08/27 08:47:13;;;;;;;0.60;0.40;;;18.00;99.90;;;;;;5083169;28;20445;-65
2022/08/27 08:49:50;;;;;;;0.40;0.20;;;18.00;99.90;;;;;;5083195;28;20422;-65
2022/08/27 08:52:30;;;;;;;0.30;0.30;;;18.00;99.90;;;;;;5082237;28;20436;-64
2022/08/27 08:55:14;;;;;;;0.30;0.20;;;18.10;99.90;;;;;;5082542;28;20466;-64
2022/08/27 08:57:50;;;;;;;0.40;0.30;;;18.20;99.90;;;;;;5082700;28;20447;-65
2022/08/27 09:00:21;;;;;;;0.60;0.30;;;18.30;99.90;;;;;;5082932;28;20493;-65
2022/08/27 09:02:55;;;;;;;0.60;0.30;;;18.30;99.90;;;;;;5085651;28;20422;-65
2022/08/27 09:05:26;;;;;;;0.40;0.37;;;18.30;99.90;;;;;;5087255;28;20436;-65
2022/08/27 09:08:06;;;;;;;0.40;0.20;;;18.40;99.90;;;;;;5086009;28;20447;-65
2022/08/27 09:11:06;;;;;;;0.50;0.30;;;18.40;99.90;;;;;;5086446;28;20444;-65
2022/08/27 09:13:42;;;;;;;0.40;0.30;;;18.30;99.90;;;;;;5085992;28;20457;-65
2022/08/27 09:16:13;;;;;;;0.40;0.30;;;18.40;99.90;;;;;;5086427;28;20447;-65
2022/08/27 09:18:45;;;;;;;1.30;0.60;;;18.30;99.90;;;;;;5086478;28;20443;-65
2022/08/27 09:21:32;;;;;;;0.37;0.30;;;18.30;99.90;;;;;;5085894;28;20500;-65
2022/08/27 09:24:08;;;;;;;0.40;0.20;;;18.30;99.90;;;;;;5085893;28;20422;-65
2022/08/27 09:26:41;;;;;;;0.50;0.30;;;18.30;99.90;;;;;;5086553;28;20439;-65
2022/08/27 09:29:21;;;;;;;0.40;0.20;;;18.40;99.90;;;;;;5086369;28;20907;-64
2022/08/27 09:31:57;;;;;;;0.40;0.30;;;18.40;99.90;;;;;;5085965;28;20516;-65
2022/08/27 09:34:34;;;;;;;0.87;0.20;;;18.40;99.90;;;;;;5085821;28;20511;-64
2022/08/27 09:37:09;;;;;;;0.60;0.30;;;18.50;99.90;;;;;;5085064;28;21004;-65
2022/08/27 09:39:48;;;;;;;0.40;0.20;;;18.60;99.90;;;;;;5085951;28;20450;-65
2022/08/27 09:42:31;;;;;;;0.40;0.20;;;18.60;99.90;;;;;;5085537;28;20547;-65
2022/08/27 09:45:02;;;;;;;0.90;0.40;;;18.60;99.90;;;;;;5086159;28;20445;-65
2022/08/27 09:47:43;;;;;;;0.40;0.40;;;18.60;99.90;;;;;;5085725;28;20418;-65
2022/08/27 09:50:18;;;;;;;0.40;0.40;;;18.60;99.90;;;;;;5085908;28;20429;-65
2022/08/27 09:52:55;;;;;;;0.50;0.30;;;18.70;99.90;;;;;;5085062;28;20422;-65
2022/08/27 09:55:41;;;;;;;0.70;0.33;;;18.80;99.90;;;;;;5085793;28;20422;-65
2022/08/27 09:58:20;;;;;;;0.47;0.37;;;18.80;99.90;;;;;;5085236;28;20461;-65
2022/08/27 10:01:01;;;;;;;0.70;0.40;;;18.80;99.90;;;;;;5085598;28;20913;-65
2022/08/27 10:03:32;;;;;;;1.23;0.50;;;18.80;99.90;;;;;;5085762;28;20403;-65
2022/08/27 10:06:05;;;;;;;1.40;0.70;;;18.80;99.90;;;;;;5085440;28;20457;-65
2022/08/27 10:08:40;;;;;;;0.60;0.40;;;18.80;99.90;;;;;;5085192;28;20432;-65
2022/08/27 10:11:16;;;;;;;0.50;0.40;;;18.80;99.90;;;;;;5085374;28;20461;-65
2022/08/27 10:13:54;;;;;;;0.80;0.60;;;18.80;99.90;;;;;;5085263;28;20436;-65
2022/08/27 10:17:01;;;;;;;0.50;0.50;;;18.70;99.90;;;;;;5085191;28;20436;-65
2022/08/27 10:19:47;;;;;;;0.60;0.57;;;18.70;99.90;;;;;;5085357;28;20429;-65
2022/08/27 10:22:31;;;;;;;0.90;0.50;;;18.70;99.90;;;;;;5084576;28;20422;-64
2022/08/27 10:25:12;;;;;;;2.73;1.03;;;18.70;99.90;;;;;;5085355;28;20422;-65
2022/08/27 10:27:54;;;;;;;1.00;0.90;;;18.60;99.90;;;;;;5084590;28;20436;-65
2022/08/27 10:30:31;;;;;;;1.37;0.57;;;18.60;99.90;;;;;;5085578;28;20402;-64
2022/08/27 10:33:11;;;;;;;0.80;0.77;;;18.50;99.90;;;;;;5085138;28;20505;-63
2022/08/27 10:35:47;;;;;;;1.60;0.80;;;18.50;99.90;;;;;;5084680;28;20446;-63
2022/08/27 10:38:34;;;;;;;0.60;0.53;;;18.50;99.90;;;;;;5084599;28;20422;-63
2022/08/27 10:41:17;;;;;;;0.73;0.70;;;18.50;99.90;;;;;;5084806;28;20462;-65
2022/08/27 10:44:28;;;;;;;1.93;1.07;;;18.50;99.90;;;;;;5084513;28;20457;-63
2022/08/27 10:47:13;;;;;;;2.83;1.00;;;18.50;99.90;;;;;;5042283;28;20535;-63
2022/08/27 10:49:53;;;;;;;0.73;0.73;;;18.40;99.90;;;;;;5042374;28;20424;-63
2022/08/27 10:52:29;;;;;;;0.83;0.80;;;18.40;99.90;;;;;;5041447;28;20442;-64
2022/08/27 10:55:10;;;;;;;3.23;1.17;;;18.40;99.90;;;;;;5042240;28;20433;-64
2022/08/27 10:58:02;;;;;;;1.30;1.30;;;18.40;99.90;;;;;;5042110;28;20445;-64
2022/08/27 11:00:40;;;;;;;0.67;0.67;;;18.40;99.90;;;;;;5042797;28;20492;-64
2022/08/27 11:03:13;;;;;;;2.17;1.00;;;18.30;99.90;;;;;;5042067;28;20495;-65
2022/08/27 11:05:48;;;;;;;1.20;1.10;;;18.30;99.90;;;;;;5041401;28;20541;-64
2022/08/27 11:08:24;;;;;;;3.27;1.30;;;18.30;99.90;;;;;;5041637;28;20424;-65
2022/08/27 11:11:00;;;;;;;0.90;0.80;;;18.20;99.90;;;;;;5041716;28;20416;-65
2022/08/27 11:13:53;;;;;;;0.80;0.80;;;18.20;99.90;;;;;;5041686;28;20428;-65
2022/08/27 11:16:36;;;;;;;0.93;0.83;;;18.20;99.90;;;;;;5041708;28;20480;-65
2022/08/27 11:19:18;;;;;;;0.97;0.80;;;18.20;99.90;;;;;;5084301;28;20952;-65
2022/08/27 11:22:01;;;;;;;4.20;1.20;;;18.20;99.90;;;;;;5083570;28;20469;-65
2022/08/27 11:24:39;;;;;;;1.13;0.90;;;18.20;99.90;;;;;;5083641;28;20448;-64
2022/08/27 11:27:21;;;;;;;3.83;0.73;;;18.20;99.90;;;;;;5083908;28;20455;-64
2022/08/27 11:29:57;;;;;;;1.27;0.87;;;18.20;99.90;;;;;;5083654;28;20454;-65
2022/08/27 11:32:36;;;;;;;2.40;0.83;;;18.10;99.90;;;;;;5083805;28;20458;-65
2022/08/27 11:35:15;;;;;;;0.97;0.90;;;18.10;99.90;;;;;;5084100;28;20962;-64
2022/08/27 11:38:16;;;;;;;1.50;1.17;;;18.10;99.90;;;;;;5083064;28;20447;-65
2022/08/27 11:41:01;;;;;;;1.70;0.83;;;18.10;99.90;;;;;;5041223;28;20553;-65
2022/08/27 11:43:37;;;;;;;1.50;1.20;;;18.00;99.90;;;;;;5041480;28;20464;-64
2022/08/27 11:46:09;;;;;;;1.87;1.10;;;18.00;99.90;;;;;;5041685;28;20433;-64
2022/08/27 11:48:43;;;;;;;1.97;1.07;;;17.90;99.90;;;;;;5041036;28;20457;-64
2022/08/27 11:51:25;;;;;;;1.17;1.00;;;17.90;99.90;;;;;;5040436;28;21015;-64
2022/08/27 11:53:59;;;;;;;1.83;1.00;;;17.80;99.90;;;;;;5041070;28;20456;-65
2022/08/27 11:56:41;;;;;;;1.43;1.10;;;17.70;99.90;;;;;;5041114;28;20441;-65
2022/08/27 11:59:29;;;;;;;1.80;1.00;;;17.60;99.90;;;;;;5040882;28;20560;-65
2022/08/27 12:02:13;;;;;;;2.40;1.20;;;17.50;99.90;;;;;;5040726;28;20485;-65
2022/08/27 12:04:44;;;;;;;3.50;1.73;;;17.40;99.90;;;;;;5041466;28;20449;-64
2022/08/27 12:07:33;;;;;;;1.90;1.10;;;17.30;99.90;;;;;;5040798;28;20457;-65
2022/08/27 12:10:18;;;;;;;1.13;1.03;;;17.30;99.90;;;;;;5040703;28;20450;-65
2022/08/27 12:13:02;;;;;;;1.37;1.27;;;17.20;99.90;;;;;;5040740;28;20442;-64
2022/08/27 12:15:55;;;;;;;1.60;1.20;;;17.30;99.90;;;;;;5043386;28;20446;-65
2022/08/27 12:19:04;;;;;;;2.40;1.67;;;17.30;99.90;;;;;;5083175;28;20452;-64
2022/08/27 12:21:50;;;;;;;1.20;1.10;;;17.30;99.90;;;;;;5082603;28;20494;-65
2022/08/27 12:24:49;;;;;;;1.77;0.90;;;17.30;99.90;;;;;;5083252;28;20466;-65
2022/08/27 12:27:35;;;;;;;1.87;1.20;;;17.40;99.90;;;;;;5083122;28;20504;-65
2022/08/27 12:30:20;;;;;;;1.90;1.20;;;17.40;99.90;;;;;;5082846;28;20451;-65
2022/08/27 12:32:53;;;;;;;1.40;1.10;;;17.40;99.90;;;;;;5082999;28;20928;-64
2022/08/27 12:35:30;;;;;;;1.30;1.20;;;17.30;99.90;;;;;;5083096;28;20760;-64
2022/08/27 12:38:11;;;;;;;2.77;1.07;;;17.30;99.90;;;;;;5086532;28;20445;-64
2022/08/27 12:40:49;;;;;;;1.47;1.07;;;17.30;99.90;;;;;;5087200;28;20414;-64
2022/08/27 12:43:23;;;;;;;1.40;1.13;;;17.30;99.90;;;;;;5086776;28;20488;-65
2022/08/27 12:45:59;;;;;;;1.17;1.00;;;17.30;99.90;;;;;;5086995;28;20572;-65
2022/08/27 12:48:34;;;;;;;1.60;1.20;;;17.30;99.90;;;;;;5087025;28;20432;-65
2022/08/27 12:51:09;;;;;;;2.93;0.90;;;17.20;99.90;;;;;;5086016;28;20447;-65
2022/08/27 12:53:44;;;;;;;2.63;1.27;;;17.10;99.90;;;;;;5086836;28;20402;-65
2022/08/27 12:56:36;;;;;;;0.83;0.83;;;17.10;99.90;;;;;;5087384;28;20422;-64
2022/08/27 12:59:29;;;;;;;1.90;0.93;;;17.00;99.90;;;;;;5087069;28;20489;-64
2022/08/27 13:02:08;;;;;;;1.07;0.97;;;16.90;99.90;;;;;;5086865;28;20493;-64
2022/08/27 13:04:43;;;;;;;3.37;1.20;;;16.90;99.90;;;;;;5086836;28;20444;-64
2022/08/27 13:07:13;;;;;;;1.67;1.10;;;16.80;99.90;;;;;;5086056;28;20458;-64
2022/08/27 13:09:44;;;;;;;5.07;1.67;;;16.80;99.90;;;;;;5086491;28;20469;-64
2022/08/27 13:12:19;;;;;;;2.50;1.40;;;16.70;99.90;;;;;;5086368;28;20451;-65
2022/08/27 13:14:52;;;;;;;2.27;1.40;;;16.60;99.90;;;;;;5086608;28;20410;-65
2022/08/27 13:17:26;;;;;;;1.17;1.07;;;16.60;99.90;;;;;;5086764;28;20413;-64
2022/08/27 13:20:00;;;;;;;1.47;1.20;;;16.60;99.90;;;;;;5086255;28;20765;-64
2022/08/27 13:22:39;;;;;;;1.10;0.93;;;16.40;99.90;;;;;;5085540;28;20494;-64
2022/08/27 13:25:22;;;;;;;3.13;1.13;;;16.40;99.90;;;;;;5085074;28;20455;-65
2022/08/27 13:28:01;;;;;;;1.80;1.23;;;16.30;99.90;;;;;;5086234;28;20459;-65
2022/08/27 13:30:33;;;;;;;1.87;1.33;;;16.30;99.90;;;;;;5085881;28;20447;-65
2022/08/27 13:33:07;;;;;;;1.03;1.00;;;16.20;99.90;;;;;;5085940;28;20402;-64
2022/08/27 13:35:41;;;;;;;1.30;1.20;;;16.20;99.90;;;;;;5086509;28;20417;-65